createdAt,value
2023-03-17T00:00:44.463Z,4.72
2023-03-17T00:01:43.485Z,4.81
2023-03-17T00:02:43.584Z,4.74
2023-03-17T00:03:43.609Z,4.80
2023-03-17T00:04:43.645Z,4.74
2023-03-17T00:05:44.688Z,4.75
2023-03-17T00:06:43.728Z,4.61
2023-03-17T00:07:44.762Z,4.68
2023-03-17T00:08:44.808Z,4.64
2023-03-17T00:09:44.868Z,4.61
2023-03-17T00:10:44.996Z,4.72
2023-03-17T00:11:44.950Z,4.55
2023-03-17T00:12:45.008Z,4.63
2023-03-17T00:13:45.045Z,4.53
2023-03-17T00:14:45.094Z,4.59
2023-03-17T00:15:44.146Z,4.53
2023-03-17T00:16:44.197Z,4.61
2023-03-17T00:17:45.230Z,4.53
2023-03-17T00:18:45.271Z,4.59
2023-03-17T00:19:44.315Z,4.51
2023-03-17T00:20:45.368Z,4.54
2023-03-17T00:21:45.415Z,4.54
2023-03-17T00:22:45.488Z,4.47
2023-03-17T00:23:45.523Z,4.40
2023-03-17T00:24:45.587Z,4.40
2023-03-17T00:25:44.620Z,4.42
2023-03-17T00:26:44.712Z,4.38
2023-03-17T00:27:45.704Z,4.38
2023-03-17T00:28:44.766Z,4.36
2023-03-17T00:29:45.812Z,4.31
2023-03-17T00:30:44.869Z,4.30
2023-03-17T00:31:45.965Z,4.40
2023-03-17T00:32:46.009Z,4.39
2023-03-17T00:33:46.014Z,4.35
2023-03-17T00:34:46.085Z,4.44
2023-03-17T00:35:46.170Z,4.30
2023-03-17T00:36:46.178Z,4.25
2023-03-17T00:37:46.215Z,4.27
2023-03-17T00:38:46.306Z,4.30
2023-03-17T00:39:46.328Z,4.34
2023-03-17T00:40:46.367Z,4.29
2023-03-17T00:41:49.479Z,4.26
2023-03-17T00:42:46.422Z,4.26
2023-03-17T00:43:46.432Z,4.27
2023-03-17T00:44:46.430Z,4.17
2023-03-17T00:45:46.386Z,4.28
2023-03-17T00:46:46.695Z,4.22
2023-03-17T00:47:46.384Z,4.30
2023-03-17T00:48:46.385Z,4.20
2023-03-17T00:49:46.380Z,4.20
2023-03-17T00:50:46.363Z,4.14
2023-03-17T00:51:46.362Z,4.15
2023-03-17T00:52:46.377Z,4.13
2023-03-17T00:53:46.343Z,4.16
2023-03-17T00:54:46.351Z,4.17
2023-03-17T00:55:46.334Z,4.19
2023-03-17T00:56:45.322Z,4.15
2023-03-17T00:57:46.337Z,4.01
2023-03-17T00:58:45.295Z,4.06
2023-03-17T00:59:45.296Z,4.12
2023-03-17T01:00:46.320Z,4.04
2023-03-17T01:01:45.296Z,4.16
2023-03-17T01:02:46.275Z,4.02
2023-03-17T01:03:46.254Z,4.09
2023-03-17T01:04:52.922Z,4.00
2023-03-17T01:05:46.254Z,4.01
2023-03-17T01:06:46.244Z,4.02
2023-03-17T01:07:46.241Z,4.04
2023-03-17T01:08:46.272Z,4.02
2023-03-17T01:09:46.227Z,4.02
2023-03-17T01:10:46.220Z,3.99
2023-03-17T01:11:46.231Z,4.04
2023-03-17T01:12:46.288Z,4.08
2023-03-17T01:13:46.223Z,4.00
2023-03-17T01:14:46.195Z,3.97
2023-03-17T01:15:46.182Z,3.95
2023-03-17T01:16:46.281Z,3.90
2023-03-17T01:17:46.166Z,3.87
2023-03-17T01:18:45.219Z,3.91
2023-03-17T01:19:45.152Z,3.92
2023-03-17T01:20:46.148Z,3.91
2023-03-17T01:21:46.159Z,3.91
2023-03-17T01:22:46.148Z,3.91
2023-03-17T01:23:46.123Z,3.88
2023-03-17T01:24:45.117Z,3.88
2023-03-17T01:25:46.124Z,3.81
2023-03-17T01:26:46.112Z,3.80
2023-03-17T01:27:46.123Z,3.79
2023-03-17T01:28:46.127Z,3.88
2023-03-17T01:29:46.125Z,3.76
2023-03-17T01:30:46.155Z,3.71
2023-03-17T01:31:46.346Z,3.77
2023-03-17T01:32:46.331Z,3.73
2023-03-17T01:33:46.370Z,3.82
2023-03-17T01:34:46.437Z,3.80
2023-03-17T01:35:46.559Z,3.74
2023-03-17T01:36:46.504Z,3.76
2023-03-17T01:37:46.565Z,3.74
2023-03-17T01:38:46.633Z,3.70
2023-03-17T01:39:45.673Z,3.72
2023-03-17T01:40:46.743Z,3.66
2023-03-17T01:41:46.801Z,3.74
2023-03-17T01:42:46.873Z,3.72
2023-03-17T01:43:46.937Z,3.72
2023-03-17T01:44:46.983Z,3.66
2023-03-17T01:45:47.162Z,3.62
2023-03-17T01:46:47.121Z,3.60
2023-03-17T01:47:47.160Z,3.61
2023-03-17T01:48:47.233Z,3.67
2023-03-17T01:49:47.291Z,3.63
2023-03-17T01:50:46.359Z,3.62
2023-03-17T01:51:47.417Z,3.56
2023-03-17T01:52:47.475Z,3.54
2023-03-17T01:53:46.516Z,3.58
2023-03-17T01:54:47.612Z,3.56
2023-03-17T01:55:46.642Z,3.60
2023-03-17T01:56:46.728Z,3.51
2023-03-17T01:57:46.775Z,3.61
2023-03-17T01:58:47.832Z,3.52
2023-03-17T01:59:47.920Z,3.54
2023-03-17T02:00:48.081Z,3.49
2023-03-17T02:01:48.051Z,3.51
2023-03-17T02:02:48.083Z,3.48
2023-03-17T02:03:48.295Z,3.51
2023-03-17T02:04:48.234Z,3.49
2023-03-17T02:05:48.291Z,3.46
2023-03-17T02:06:57.504Z,3.47
2023-03-17T02:07:48.319Z,3.48
2023-03-17T02:08:48.319Z,3.49
2023-03-17T02:09:48.309Z,3.49
2023-03-17T02:10:48.322Z,3.47
2023-03-17T02:11:48.306Z,3.53
2023-03-17T02:12:48.333Z,3.48
2023-03-17T02:13:48.274Z,3.46
2023-03-17T02:14:48.287Z,3.45
2023-03-17T02:15:48.277Z,3.44
2023-03-17T02:16:48.318Z,3.44
2023-03-17T02:17:48.297Z,3.43
2023-03-17T02:18:48.284Z,3.41
2023-03-17T02:19:48.246Z,3.36
2023-03-17T02:20:47.254Z,3.33
2023-03-17T02:21:48.229Z,3.39
2023-03-17T02:22:47.211Z,3.35
2023-03-17T02:23:48.266Z,3.36
2023-03-17T02:24:48.232Z,3.33
2023-03-17T02:25:48.189Z,3.35
2023-03-17T02:26:47.208Z,3.31
2023-03-17T02:27:48.179Z,3.30
2023-03-17T02:28:48.162Z,3.31
2023-03-17T02:29:48.161Z,3.29
2023-03-17T02:30:48.197Z,3.27
2023-03-17T02:31:48.169Z,3.30
2023-03-17T02:32:48.168Z,3.26
2023-03-17T02:33:48.199Z,3.25
2023-03-17T02:34:48.136Z,3.34
2023-03-17T02:35:48.210Z,3.25
2023-03-17T02:36:48.311Z,3.22
2023-03-17T02:37:48.278Z,3.22
2023-03-17T02:38:48.300Z,3.23
2023-03-17T02:39:48.345Z,3.22
2023-03-17T02:40:48.352Z,3.19
2023-03-17T02:41:48.422Z,3.20
2023-03-17T02:42:48.462Z,3.20
2023-03-17T02:43:48.458Z,3.19
2023-03-17T02:44:48.500Z,3.17
2023-03-17T02:45:48.554Z,3.16
2023-03-17T02:46:48.575Z,3.17
2023-03-17T02:47:48.581Z,3.22
2023-03-17T02:48:48.696Z,3.14
2023-03-17T02:49:48.674Z,3.12
2023-03-17T02:50:47.663Z,3.12
2023-03-17T02:51:48.733Z,3.09
2023-03-17T02:52:48.725Z,3.07
2023-03-17T02:53:48.750Z,3.16
2023-03-17T02:54:48.781Z,3.06
2023-03-17T02:55:48.777Z,3.10
2023-03-17T02:56:48.839Z,3.10
2023-03-17T02:57:48.873Z,3.11
2023-03-17T02:58:48.935Z,3.05
2023-03-17T02:59:49.001Z,3.09
2023-03-17T03:00:49.016Z,3.03
2023-03-17T03:01:49.010Z,3.04
2023-03-17T03:02:49.105Z,3.02
2023-03-17T03:03:49.048Z,3.07
2023-03-17T03:04:49.056Z,3.08
2023-03-17T03:05:48.106Z,2.95
2023-03-17T03:06:49.119Z,3.01
2023-03-17T03:07:48.114Z,2.98
2023-03-17T03:08:48.127Z,3.02
2023-03-17T03:09:49.141Z,2.96
2023-03-17T03:10:48.172Z,2.96
2023-03-17T03:11:49.190Z,3.00
2023-03-17T03:12:49.347Z,3.03
2023-03-17T03:13:49.208Z,2.96
2023-03-17T03:14:49.246Z,2.99
2023-03-17T03:15:48.295Z,2.97
2023-03-17T03:16:49.286Z,2.95
2023-03-17T03:17:49.328Z,2.99
2023-03-17T03:18:48.328Z,2.94
2023-03-17T03:19:49.354Z,2.94
2023-03-17T03:20:49.386Z,2.99
2023-03-17T03:21:49.448Z,2.96
2023-03-17T03:22:49.425Z,2.93
2023-03-17T03:23:48.436Z,2.93
2023-03-17T03:24:49.451Z,2.90
2023-03-17T03:25:49.490Z,2.90
2023-03-17T03:26:49.554Z,2.89
2023-03-17T03:27:49.567Z,2.85
2023-03-17T03:28:49.592Z,2.85
2023-03-17T03:29:49.619Z,2.85
2023-03-17T03:30:49.776Z,2.87
2023-03-17T03:31:49.703Z,2.84
2023-03-17T03:32:49.773Z,2.91
2023-03-17T03:33:49.737Z,2.84
2023-03-17T03:34:48.770Z,2.86
2023-03-17T03:35:48.853Z,2.85
2023-03-17T03:36:48.817Z,2.79
2023-03-17T03:37:49.882Z,2.85
2023-03-17T03:38:48.875Z,2.86
2023-03-17T03:39:49.898Z,2.81
2023-03-17T03:40:49.937Z,2.82
2023-03-17T03:41:49.956Z,2.82
2023-03-17T03:42:49.991Z,2.84
2023-03-17T03:43:50.050Z,2.79
2023-03-17T03:44:49.077Z,2.84
2023-03-17T03:45:50.121Z,2.79
2023-03-17T03:46:49.224Z,2.82
2023-03-17T03:47:49.190Z,2.82
2023-03-17T03:48:50.219Z,2.81
2023-03-17T03:49:50.262Z,2.79
2023-03-17T03:50:50.292Z,2.79
2023-03-17T03:51:50.332Z,2.73
2023-03-17T03:52:50.344Z,2.75
2023-03-17T03:53:50.407Z,2.75
2023-03-17T03:54:50.424Z,2.77
2023-03-17T03:55:50.425Z,2.77
2023-03-17T03:56:50.474Z,2.69
2023-03-17T03:57:50.500Z,2.74
2023-03-17T03:58:50.527Z,2.74
2023-03-17T03:59:50.570Z,2.75
2023-03-17T04:00:50.611Z,2.71
2023-03-17T04:01:49.634Z,2.71
2023-03-17T04:02:50.716Z,2.71
2023-03-17T04:03:50.696Z,2.72
2023-03-17T04:04:49.739Z,2.66
2023-03-17T04:05:50.767Z,2.69
2023-03-17T04:06:50.774Z,2.66
2023-03-17T04:07:50.801Z,2.66
2023-03-17T04:08:50.856Z,2.69
2023-03-17T04:09:50.897Z,2.66
2023-03-17T04:10:50.911Z,2.64
2023-03-17T04:11:50.985Z,2.66
2023-03-17T04:12:50.013Z,2.66
2023-03-17T04:13:51.037Z,2.59
2023-03-17T04:14:51.058Z,2.64
2023-03-17T04:15:51.143Z,2.61
2023-03-17T04:16:50.102Z,2.61
2023-03-17T04:17:51.147Z,2.64
2023-03-17T04:18:51.271Z,2.60
2023-03-17T04:19:51.187Z,2.60
2023-03-17T04:20:51.214Z,2.59
2023-03-17T04:21:53.541Z,2.56
2023-03-17T04:22:50.248Z,2.57
2023-03-17T04:23:51.226Z,2.57
2023-03-17T04:24:51.223Z,2.58
2023-03-17T04:25:51.247Z,2.59
2023-03-17T04:26:51.219Z,2.55
2023-03-17T04:27:51.238Z,2.58
2023-03-17T04:28:51.228Z,2.56
2023-03-17T04:29:51.198Z,2.55
2023-03-17T04:30:51.199Z,2.56
2023-03-17T04:31:51.266Z,2.57
2023-03-17T04:32:51.276Z,2.52
2023-03-17T04:33:51.191Z,2.56
2023-03-17T04:34:51.151Z,2.57
2023-03-17T04:35:51.165Z,2.58
2023-03-17T04:36:51.140Z,2.55
2023-03-17T04:37:50.142Z,2.56
2023-03-17T04:38:50.136Z,2.60
2023-03-17T04:39:50.129Z,2.55
2023-03-17T04:40:50.135Z,2.57
2023-03-17T04:41:50.141Z,2.58
2023-03-17T04:42:51.112Z,2.57
2023-03-17T04:43:50.103Z,2.58
2023-03-17T04:44:51.111Z,2.56
2023-03-17T04:45:50.125Z,2.63
2023-03-17T04:46:50.148Z,2.57
2023-03-17T04:47:50.214Z,2.55
2023-03-17T04:48:51.269Z,2.57
2023-03-17T04:49:50.321Z,2.60
2023-03-17T04:50:51.384Z,2.60
2023-03-17T04:51:51.439Z,2.55
2023-03-17T04:52:51.532Z,2.57
2023-03-17T04:53:51.583Z,2.60
2023-03-17T04:54:51.612Z,2.59
2023-03-17T04:55:50.661Z,2.58
2023-03-17T04:56:51.696Z,2.58
2023-03-17T04:57:51.788Z,2.54
2023-03-17T04:58:50.825Z,2.56
2023-03-17T04:59:50.892Z,2.58
2023-03-17T05:00:51.950Z,2.59
2023-03-17T05:01:52.030Z,2.57
2023-03-17T05:02:52.060Z,2.61
2023-03-17T05:03:52.125Z,2.59
2023-03-17T05:04:52.164Z,2.58
2023-03-17T05:05:52.215Z,2.55
2023-03-17T05:06:51.284Z,2.58
2023-03-17T05:07:52.363Z,2.57
2023-03-17T05:08:52.413Z,2.56
2023-03-17T05:09:51.480Z,2.52
2023-03-17T05:10:51.577Z,2.55
2023-03-17T05:11:52.600Z,2.57
2023-03-17T05:12:51.667Z,2.57
2023-03-17T05:13:51.746Z,2.55
2023-03-17T05:14:52.776Z,2.51
2023-03-17T05:15:51.829Z,2.57
2023-03-17T05:16:53.001Z,2.57
2023-03-17T05:17:52.999Z,2.54
2023-03-17T05:18:53.001Z,2.53
2023-03-17T05:19:53.107Z,2.49
2023-03-17T05:20:52.169Z,2.55
2023-03-17T05:21:53.200Z,2.54
2023-03-17T05:22:53.259Z,2.47
2023-03-17T05:23:55.036Z,2.51
2023-03-17T05:24:53.332Z,2.53
2023-03-17T05:25:53.368Z,2.55
2023-03-17T05:26:53.316Z,2.53
2023-03-17T05:27:53.304Z,2.53
2023-03-17T05:28:52.309Z,2.47
2023-03-17T05:29:52.321Z,2.56
2023-03-17T05:30:52.363Z,2.50
2023-03-17T05:31:53.267Z,2.46
2023-03-17T05:32:53.302Z,2.48
2023-03-17T05:33:53.251Z,2.48
2023-03-17T05:34:53.268Z,2.53
2023-03-17T05:35:52.427Z,2.47
2023-03-17T05:36:53.233Z,2.51
2023-03-17T05:37:53.221Z,2.50
2023-03-17T05:38:52.234Z,2.51
2023-03-17T05:39:53.209Z,2.50
2023-03-17T05:40:53.214Z,2.51
2023-03-17T05:41:52.194Z,2.47
2023-03-17T05:42:53.186Z,2.48
2023-03-17T05:43:53.176Z,2.49
2023-03-17T05:44:53.182Z,2.47
2023-03-17T05:45:53.251Z,2.47
2023-03-17T05:46:52.192Z,2.44
2023-03-17T05:47:52.160Z,2.45
2023-03-17T05:48:53.181Z,2.44
2023-03-17T05:49:53.267Z,2.42
2023-03-17T05:50:53.304Z,2.44
2023-03-17T05:51:52.385Z,2.41
2023-03-17T05:52:53.449Z,2.43
2023-03-17T05:53:53.493Z,2.43
2023-03-17T05:54:52.572Z,2.46
2023-03-17T05:55:52.625Z,2.47
2023-03-17T05:56:52.693Z,2.42
2023-03-17T05:57:54.344Z,2.43
2023-03-17T05:58:53.798Z,2.46
2023-03-17T05:59:53.855Z,2.42
2023-03-17T06:00:53.922Z,2.38
2023-03-17T06:01:54.007Z,2.41
2023-03-17T06:02:54.038Z,2.48
2023-03-17T06:03:54.109Z,2.47
2023-03-17T06:04:53.181Z,2.43
2023-03-17T06:05:54.230Z,2.45
2023-03-17T06:06:53.329Z,2.42
2023-03-17T06:07:56.463Z,2.47
2023-03-17T06:08:54.336Z,2.46
2023-03-17T06:09:54.346Z,2.49
2023-03-17T06:10:54.334Z,2.44
2023-03-17T06:11:54.308Z,2.41
2023-03-17T06:12:54.292Z,2.47
2023-03-17T06:13:54.300Z,2.44
2023-03-17T06:14:53.333Z,2.43
2023-03-17T06:15:54.362Z,2.44
2023-03-17T06:16:54.280Z,2.42
2023-03-17T06:17:54.290Z,2.42
2023-03-17T06:18:54.264Z,2.43
2023-03-17T06:19:54.268Z,2.37
2023-03-17T06:20:54.254Z,2.42
2023-03-17T06:21:53.226Z,2.41
2023-03-17T06:23:03.790Z,2.43
2023-03-17T06:23:54.234Z,2.44
2023-03-17T06:24:56.069Z,2.45
2023-03-17T06:25:54.237Z,2.43
2023-03-17T06:26:54.209Z,2.45
2023-03-17T06:27:53.194Z,2.47
2023-03-17T06:28:54.191Z,2.52
2023-03-17T06:29:54.174Z,2.50
2023-03-17T06:30:54.233Z,2.50
2023-03-17T06:31:54.161Z,2.51
2023-03-17T06:32:54.167Z,2.62
2023-03-17T06:33:54.177Z,2.56
2023-03-17T06:34:54.149Z,2.57
2023-03-17T06:35:54.175Z,2.58
2023-03-17T06:36:54.161Z,2.61
2023-03-17T06:37:54.153Z,2.58
2023-03-17T06:38:53.125Z,2.59
2023-03-17T06:39:53.123Z,2.62
2023-03-17T06:40:54.164Z,2.67
2023-03-17T06:41:54.150Z,2.64
2023-03-17T06:42:54.136Z,2.65
2023-03-17T06:43:54.122Z,2.62
2023-03-17T06:44:54.223Z,2.68
2023-03-17T06:45:54.790Z,2.68
2023-03-17T06:46:53.099Z,2.72
2023-03-17T06:47:54.074Z,2.73
2023-03-17T06:48:54.127Z,2.75
2023-03-17T06:50:54.411Z,2.85
2023-03-17T06:51:53.112Z,2.88
2023-03-17T06:52:54.535Z,2.90
2023-03-17T06:53:53.152Z,2.96
2023-03-17T06:54:53.135Z,2.98
2023-03-17T06:55:53.713Z,2.96
2023-03-17T06:56:54.360Z,2.37
2023-03-17T06:57:54.176Z,2.24
2023-03-17T06:58:54.671Z,2.21
2023-03-17T06:59:54.139Z,2.14
2023-03-17T07:00:54.321Z,1.91
2023-03-17T07:01:54.351Z,2.23
2023-03-17T07:02:54.183Z,2.49
2023-03-17T07:03:54.183Z,2.62
2023-03-17T07:04:54.246Z,2.59
2023-03-17T07:05:53.236Z,2.55
2023-03-17T07:06:53.210Z,2.53
2023-03-17T07:07:54.272Z,2.63
2023-03-17T07:08:54.328Z,2.76
2023-03-17T07:09:53.383Z,2.87
2023-03-17T07:10:54.487Z,2.94
2023-03-17T07:11:54.429Z,3.13
2023-03-17T07:12:54.467Z,3.25
2023-03-17T07:13:54.449Z,3.44
2023-03-17T07:14:54.498Z,3.53
2023-03-17T07:15:55.463Z,3.63
2023-03-17T07:16:54.496Z,3.80
2023-03-17T07:17:54.513Z,3.98
2023-03-17T07:18:53.568Z,4.10
2023-03-17T07:19:53.629Z,4.11
2023-03-17T07:20:54.729Z,4.25
2023-03-17T07:21:54.770Z,4.38
2023-03-17T07:22:54.838Z,4.56
2023-03-17T07:23:54.839Z,4.75
2023-03-17T07:24:54.883Z,4.94
2023-03-17T07:25:54.933Z,5.08
2023-03-17T07:26:53.963Z,5.24
2023-03-17T07:27:53.983Z,5.30
2023-03-17T07:28:55.062Z,5.69
2023-03-17T07:29:55.052Z,5.68
2023-03-17T07:30:54.095Z,5.81
2023-03-17T07:31:55.199Z,5.94
2023-03-17T07:33:57.303Z,6.32
2023-03-17T07:35:55.139Z,6.39
2023-03-17T07:36:54.118Z,6.62
2023-03-17T07:42:54.076Z,7.67
2023-03-17T07:44:55.062Z,8.07
2023-03-17T07:47:55.037Z,8.51
2023-03-17T07:48:55.018Z,8.72
2023-03-17T07:52:55.004Z,9.95
2023-03-17T07:54:54.989Z,10.42
2023-03-17T07:55:55.434Z,10.38
2023-03-17T07:58:53.963Z,10.92
2023-03-17T07:59:54.981Z,10.95
2023-03-17T08:00:54.969Z,10.90
2023-03-17T08:04:54.927Z,11.01
2023-03-17T08:07:54.948Z,10.87
2023-03-17T08:14:53.846Z,10.31
2023-03-17T08:19:54.832Z,9.93
2023-03-17T08:21:53.830Z,9.77
2023-03-17T08:22:54.795Z,9.77
2023-03-17T08:23:54.805Z,9.72
2023-03-17T08:28:54.794Z,9.35
2023-03-17T08:30:54.855Z,9.26
2023-03-17T08:31:54.795Z,9.28
2023-03-17T08:33:54.727Z,9.23
2023-03-17T08:39:55.098Z,8.86
2023-03-17T08:42:55.255Z,8.68
2023-03-17T08:45:55.446Z,8.60
2023-03-17T08:46:55.516Z,8.48
2023-03-17T08:47:55.532Z,8.49
2023-03-17T08:48:55.576Z,7.81
2023-03-17T08:49:55.672Z,7.97
2023-03-17T08:51:55.779Z,5.46
2023-03-17T08:52:55.831Z,4.85
2023-03-17T08:53:55.881Z,5.33
2023-03-17T08:54:55.937Z,5.46
2023-03-17T08:55:55.992Z,5.17
2023-03-17T08:56:56.074Z,5.09
2023-03-17T08:57:56.142Z,4.94
2023-03-17T09:00:56.244Z,4.85
2023-03-17T09:01:56.428Z,4.85
2023-03-17T09:02:20.044Z,0.50
2023-03-17T09:02:56.398Z,4.63
2023-03-17T09:03:55.406Z,4.57
2023-03-17T09:04:56.419Z,4.57
2023-03-17T09:05:55.471Z,4.17
2023-03-17T09:07:03.208Z,3.89
2023-03-17T09:07:56.518Z,3.89
2023-03-17T09:08:55.704Z,3.89
2023-03-17T09:09:56.441Z,3.75
2023-03-17T09:10:55.446Z,3.34
2023-03-17T09:11:56.462Z,3.10
2023-03-17T09:12:56.427Z,3.03
2023-03-17T09:13:17.629Z,0.50
2023-03-17T09:13:55.482Z,2.19
2023-03-17T09:14:56.405Z,2.19
2023-03-17T09:15:56.492Z,1.68
2023-03-17T09:16:56.431Z,1.86
2023-03-17T09:17:56.400Z,1.91
2023-03-17T09:18:56.387Z,1.86
2023-03-17T09:19:55.381Z,1.84
2023-03-17T09:20:56.383Z,1.80
2023-03-17T09:21:55.366Z,1.71
2023-03-17T09:22:56.360Z,1.65
2023-03-17T09:23:55.370Z,1.87
2023-03-17T09:24:56.340Z,4.00
2023-03-17T09:25:56.361Z,3.97
2023-03-17T09:26:56.340Z,4.12
2023-03-17T09:27:56.327Z,3.52
2023-03-17T09:28:56.336Z,3.43
2023-03-17T09:29:56.323Z,3.41
2023-03-17T09:30:56.319Z,3.40
2023-03-17T09:31:40.338Z,0.50
2023-03-17T09:31:56.298Z,3.19
2023-03-17T09:32:56.372Z,1.89
2023-03-17T09:33:56.297Z,2.40
2023-03-17T09:35:56.314Z,2.00
2023-03-17T09:36:19.923Z,0.50
2023-03-17T09:37:56.280Z,1.40
2023-03-17T09:38:56.336Z,0.78
2023-03-17T09:39:56.411Z,0.49
2023-03-17T09:40:55.957Z,0.50
2023-03-17T09:41:56.502Z,0.54
2023-03-17T09:42:56.591Z,0.69
2023-03-17T09:43:56.634Z,0.42
2023-03-17T09:44:56.704Z,0.57
2023-03-17T09:45:56.712Z,0.34
2023-03-17T09:46:56.800Z,0.34
2023-03-17T09:47:56.712Z,0.34
2023-03-17T09:48:56.732Z,0.34
2023-03-17T09:49:55.807Z,0.34
2023-03-17T09:50:56.988Z,0.34
2023-03-17T09:51:56.877Z,0.34
2023-03-17T09:52:56.878Z,0.34
2023-03-17T09:53:55.889Z,0.34
2023-03-17T09:54:55.917Z,0.34
2023-03-17T09:55:57.527Z,0.34
2023-03-17T09:56:56.961Z,0.34
2023-03-17T09:57:57.040Z,0.89
2023-03-17T09:58:56.060Z,1.23
2023-03-17T09:59:57.063Z,1.61
2023-03-17T10:00:57.206Z,1.54
2023-03-17T10:01:57.169Z,2.52
2023-03-17T10:02:57.138Z,3.03
2023-03-17T10:03:57.154Z,3.52
2023-03-17T10:04:56.225Z,4.24
2023-03-17T10:05:56.272Z,5.81
2023-03-17T10:06:57.210Z,7.03
2023-03-17T10:07:57.256Z,8.30
2023-03-17T10:08:56.309Z,9.67
2023-03-17T10:09:06.300Z,0.50
2023-03-17T10:09:57.369Z,11.65
2023-03-17T10:10:57.432Z,12.75
2023-03-17T10:11:25.415Z,0.50
2023-03-17T10:11:57.462Z,15.03
2023-03-17T10:12:26.120Z,0.50
2023-03-17T10:12:57.600Z,15.98
2023-03-17T10:13:25.284Z,0.50
2023-03-17T10:13:56.568Z,17.36
2023-03-17T10:14:26.497Z,0.50
2023-03-17T10:14:57.611Z,19.06
2023-03-17T10:15:26.926Z,0.50
2023-03-17T10:15:57.672Z,20.28
2023-03-17T10:16:57.661Z,22.26
2023-03-17T10:17:56.670Z,24.87
2023-03-17T10:18:56.704Z,26.79
2023-03-17T10:19:57.693Z,28.19
2023-03-17T10:20:57.760Z,28.60
2023-03-17T10:21:57.727Z,31.29
2023-03-17T10:22:57.780Z,33.39
2023-03-17T10:23:57.780Z,35.73
2023-03-17T10:24:57.756Z,37.39
2023-03-17T10:25:57.771Z,39.11
2023-03-17T10:26:57.778Z,40.67
2023-03-17T10:27:57.756Z,42.37
2023-03-17T10:28:57.790Z,44.18
2023-03-17T10:29:57.812Z,46.38
2023-03-17T10:30:57.821Z,48.11
2023-03-17T10:31:58.729Z,50.33
2023-03-17T10:32:57.941Z,51.87
2023-03-17T10:33:56.862Z,52.89
2023-03-17T10:34:57.899Z,52.30
2023-03-17T10:35:57.952Z,50.26
2023-03-17T10:36:57.925Z,42.95
2023-03-17T10:38:13.480Z,39.23
2023-03-17T10:38:57.962Z,39.23
2023-03-17T10:39:56.903Z,37.31
2023-03-17T10:40:57.914Z,30.86
2023-03-17T10:41:57.898Z,27.23
2023-03-17T10:42:20.854Z,0.50
2023-03-17T10:42:57.887Z,26.06
2023-03-17T10:43:20.424Z,0.50
2023-03-17T10:43:57.904Z,25.62
2023-03-17T10:44:56.919Z,25.61
2023-03-17T10:45:57.896Z,16.44
2023-03-17T10:46:58.053Z,3.06
2023-03-17T10:47:57.847Z,0.87
2023-03-17T10:48:56.904Z,0.59
2023-03-17T10:49:57.845Z,0.71
2023-03-17T10:50:56.828Z,0.58
2023-03-17T10:51:57.957Z,1.11
2023-03-17T10:52:57.848Z,1.42
2023-03-17T10:53:56.826Z,2.58
2023-03-17T10:54:56.827Z,2.67
2023-03-17T10:55:57.798Z,3.07
2023-03-17T10:56:59.145Z,3.92
2023-03-17T10:57:57.785Z,4.38
2023-03-17T10:58:57.808Z,4.95
2023-03-17T10:59:56.862Z,5.45
2023-03-17T11:00:57.938Z,6.79
2023-03-17T11:01:57.930Z,7.18
2023-03-17T11:02:57.965Z,7.62
2023-03-17T11:03:57.053Z,7.67
2023-03-17T11:04:57.059Z,7.49
2023-03-17T11:05:58.100Z,8.42
2023-03-17T11:06:58.153Z,8.63
2023-03-17T11:07:57.134Z,10.40
2023-03-17T11:08:58.154Z,8.72
2023-03-17T11:09:58.186Z,9.67
2023-03-17T11:10:58.199Z,11.34
2023-03-17T11:11:58.248Z,11.84
2023-03-17T11:12:58.272Z,10.80
2023-03-17T11:13:58.270Z,12.86
2023-03-17T11:14:58.314Z,12.71
2023-03-17T11:15:58.414Z,14.13
2023-03-17T11:16:57.534Z,16.16
2023-03-17T11:17:57.363Z,16.35
2023-03-17T11:18:57.371Z,17.36
2023-03-17T11:19:57.445Z,17.54
2023-03-17T11:20:57.421Z,19.32
2023-03-17T11:21:58.432Z,19.64
2023-03-17T11:22:58.432Z,19.26
2023-03-17T11:23:57.484Z,19.37
2023-03-17T11:24:58.535Z,18.37
2023-03-17T11:25:58.448Z,20.35
2023-03-17T11:26:58.442Z,20.76
2023-03-17T11:27:58.486Z,21.24
2023-03-17T11:28:58.444Z,21.36
2023-03-17T11:29:58.496Z,21.43
2023-03-17T11:30:58.464Z,20.86
2023-03-17T11:31:57.662Z,21.84
2023-03-17T11:32:58.546Z,21.83
2023-03-17T11:33:58.475Z,20.94
2023-03-17T11:34:58.508Z,19.26
2023-03-17T11:35:58.596Z,20.19
2023-03-17T11:38:57.500Z,18.56
2023-03-17T11:40:26.091Z,0.50
2023-03-17T11:41:59.025Z,19.06
2023-03-17T11:45:58.688Z,8.61
2023-03-17T11:47:59.975Z,7.91
2023-03-17T11:48:58.637Z,7.09
2023-03-17T11:50:00.483Z,6.59
2023-03-17T11:50:58.599Z,6.03
2023-03-17T11:51:57.600Z,5.82
2023-03-17T11:52:58.630Z,5.66
2023-03-17T11:53:26.222Z,0.50
2023-03-17T11:53:58.592Z,5.39
2023-03-17T11:54:59.692Z,4.65
2023-03-17T11:55:58.605Z,4.73
2023-03-17T11:56:58.630Z,4.83
2023-03-17T11:57:58.664Z,4.95
2023-03-17T11:58:57.680Z,4.73
2023-03-17T11:59:58.736Z,4.67
2023-03-17T12:00:58.752Z,4.47
2023-03-17T12:01:58.736Z,4.27
2023-03-17T12:02:58.778Z,4.39
2023-03-17T12:03:57.983Z,4.42
2023-03-17T12:04:58.835Z,4.48
2023-03-17T12:05:58.854Z,4.90
2023-03-17T12:06:58.879Z,4.77
2023-03-17T12:07:58.957Z,4.76
2023-03-17T12:08:58.988Z,5.04
2023-03-17T12:09:58.983Z,4.94
2023-03-17T12:10:11.446Z,0.50
2023-03-17T12:10:59.020Z,4.90
2023-03-17T12:11:59.049Z,4.68
2023-03-17T12:12:59.089Z,4.20
2023-03-17T12:13:59.112Z,4.19
2023-03-17T12:14:59.145Z,4.19
2023-03-17T12:15:59.225Z,3.99
2023-03-17T12:16:59.226Z,4.01
2023-03-17T12:17:58.256Z,3.93
2023-03-17T12:18:59.279Z,4.05
2023-03-17T12:19:59.343Z,4.39
2023-03-17T12:20:59.361Z,4.56
2023-03-17T12:21:59.387Z,4.76
2023-03-17T12:22:59.453Z,4.81
2023-03-17T12:23:59.479Z,4.90
2023-03-17T12:24:59.503Z,5.02
2023-03-17T12:25:59.569Z,5.48
2023-03-17T12:26:59.603Z,5.51
2023-03-17T12:27:59.657Z,5.17
2023-03-17T12:28:59.671Z,4.94
2023-03-17T12:29:35.589Z,0.50
2023-03-17T12:29:59.811Z,5.17
2023-03-17T12:30:59.798Z,5.22
2023-03-17T12:31:59.835Z,5.55
2023-03-17T12:32:58.926Z,6.10
2023-03-17T12:33:59.919Z,5.91
2023-03-17T12:34:59.959Z,6.57
2023-03-17T12:36:00.104Z,7.12
2023-03-17T12:37:00.111Z,6.89
2023-03-17T12:38:00.515Z,7.37
2023-03-17T12:39:00.163Z,7.15
2023-03-17T12:40:00.231Z,8.13
2023-03-17T12:41:00.286Z,7.72
2023-03-17T12:42:01.823Z,0.50
2023-03-17T12:43:00.365Z,7.19
2023-03-17T12:44:02.642Z,0.50
2023-03-17T12:45:00.578Z,6.59
2023-03-17T12:54:36.762Z,0.50
2023-03-17T12:55:36.511Z,0.50
2023-03-17T12:56:36.166Z,0.50
2023-03-17T13:08:01.747Z,2.75
2023-03-17T13:09:01.830Z,3.01
2023-03-17T13:10:01.886Z,2.58
2023-03-17T13:56:15.539Z,0.65
2023-03-17T13:57:15.755Z,1.73
2023-03-17T13:58:15.767Z,1.66
2023-03-17T14:01:15.834Z,2.70
2023-03-17T14:02:15.749Z,2.24
2023-03-17T14:03:15.962Z,2.27
2023-03-17T14:04:15.874Z,2.28
2023-03-17T14:07:15.911Z,3.74
2023-03-17T14:08:16.250Z,2.87
2023-03-17T14:09:15.942Z,2.90
2023-03-17T14:10:16.072Z,3.31
2023-03-17T14:11:16.635Z,2.20
2023-03-17T14:12:16.009Z,2.00
2023-03-17T14:13:16.139Z,1.43
2023-03-17T14:14:05.390Z,19.25
2023-03-17T14:15:07.995Z,19.59
2023-03-17T14:15:16.067Z,3.80
2023-03-17T14:17:16.282Z,3.63
2023-03-17T14:18:16.039Z,4.26
2023-03-17T14:19:16.075Z,3.78
2023-03-17T14:20:05.397Z,22.49
2023-03-17T14:20:16.105Z,2.93
2023-03-17T14:21:08.931Z,23.34
2023-03-17T14:21:16.221Z,1.99
2023-03-17T14:22:05.413Z,23.40
2023-03-17T14:22:16.224Z,3.35
2023-03-17T14:23:05.366Z,23.51
2023-03-17T14:24:05.360Z,23.79
2023-03-17T14:25:16.409Z,3.23
2023-03-17T14:26:16.443Z,3.25
2023-03-17T14:27:16.462Z,1.67
2023-03-17T14:28:16.500Z,2.70
2023-03-17T14:29:05.444Z,26.42
2023-03-17T14:29:15.538Z,8.99
2023-03-17T14:30:16.599Z,110.79
2023-03-17T14:31:16.658Z,134.53
2023-03-17T14:32:16.839Z,178.19
2023-03-17T14:33:16.713Z,154.54
2023-03-17T14:34:16.728Z,100.40
2023-03-17T14:35:16.737Z,90.14
2023-03-17T14:36:16.928Z,110.83
2023-03-17T14:37:16.757Z,105.97
2023-03-17T14:38:16.935Z,92.35
2023-03-17T14:39:16.843Z,114.14
2023-03-17T14:40:16.928Z,93.28
2023-03-17T14:41:16.839Z,70.38
2023-03-17T14:42:16.916Z,48.33
2023-03-17T14:43:16.236Z,37.35
2023-03-17T14:44:16.984Z,15.21
2023-03-17T14:45:15.986Z,22.53
2023-03-17T14:46:17.009Z,18.96
2023-03-17T14:47:17.045Z,34.10
2023-03-17T14:48:17.027Z,65.66
2023-03-17T14:49:17.036Z,75.48
2023-03-17T14:50:17.140Z,98.37
2023-03-17T14:51:17.024Z,72.98
2023-03-17T14:52:05.375Z,31.10
2023-03-17T14:52:17.108Z,53.89
2023-03-17T14:53:05.424Z,30.50
2023-03-17T14:53:17.163Z,64.03
2023-03-17T14:54:05.439Z,30.75
2023-03-17T14:54:17.062Z,40.84
2023-03-17T14:55:05.516Z,30.82
2023-03-17T14:55:17.146Z,32.78
2023-03-17T14:56:16.173Z,59.72
2023-03-17T14:57:05.587Z,31.34
2023-03-17T14:57:17.377Z,45.56
2023-03-17T14:58:17.389Z,21.41
2023-03-17T14:59:17.414Z,39.90